sensor_id;sensor_type;location;lat;lon;timestamp;P1;durP1;ratioP1;P2;durP2;ratioP2
24559;SDS011;12727;49.934;8.656;2022-10-17T17:23:11;12.52;;;4.10;;
24559;SDS011;12727;49.934;8.656;2022-10-17T17:25:36;12.27;;;4.10;;
24559;SDS011;12727;49.934;8.656;2022-10-17T17:28:03;13.13;;;4.97;;
24559;SDS011;12727;49.934;8.656;2022-10-17T17:30:31;12.27;;;4.38;;
24559;SDS011;12727;49.934;8.656;2022-10-17T17:32:58;14.10;;;4.07;;
24559;SDS011;12727;49.934;8.656;2022-10-17T17:35:24;10.00;;;4.63;;
24559;SDS011;12727;49.934;8.656;2022-10-17T17:37:50;9.27;;;4.78;;
24559;SDS011;12727;49.934;8.656;2022-10-17T17:40:16;10.00;;;4.53;;
24559;SDS011;12727;49.934;8.656;2022-10-17T17:42:41;10.90;;;4.50;;
24559;SDS011;12727;49.934;8.656;2022-10-17T17:45:07;8.60;;;3.92;;
24559;SDS011;12727;49.934;8.656;2022-10-17T17:47:33;8.20;;;4.05;;
24559;SDS011;12727;49.934;8.656;2022-10-17T17:49:59;10.80;;;4.28;;
24559;SDS011;12727;49.934;8.656;2022-10-17T17:52:24;9.68;;;3.97;;
24559;SDS011;12727;49.934;8.656;2022-10-17T17:54:50;16.85;;;4.45;;
24559;SDS011;12727;49.934;8.656;2022-10-17T17:57:15;11.60;;;4.05;;
24559;SDS011;12727;49.934;8.656;2022-10-17T17:59:41;12.98;;;4.45;;
24559;SDS011;12727;49.934;8.656;2022-10-17T18:02:08;12.13;;;4.72;;
24559;SDS011;12727;49.934;8.656;2022-10-17T18:04:34;11.43;;;3.90;;
24559;SDS011;12727;49.934;8.656;2022-10-17T18:07:00;12.55;;;4.00;;
24559;SDS011;12727;49.934;8.656;2022-10-17T18:09:25;16.50;;;4.53;;
24559;SDS011;12727;49.934;8.656;2022-10-17T18:11:51;9.50;;;3.95;;
24559;SDS011;12727;49.934;8.656;2022-10-17T18:14:17;9.98;;;3.90;;
24559;SDS011;12727;49.934;8.656;2022-10-17T18:16:47;10.88;;;3.85;;
24559;SDS011;12727;49.934;8.656;2022-10-17T18:19:13;10.07;;;4.10;;
24559;SDS011;12727;49.934;8.656;2022-10-17T18:21:39;10.57;;;5.07;;
24559;SDS011;12727;49.934;8.656;2022-10-17T18:24:05;14.93;;;4.90;;
24559;SDS011;12727;49.934;8.656;2022-10-17T18:26:31;8.70;;;4.25;;
24559;SDS011;12727;49.934;8.656;2022-10-17T18:28:57;7.32;;;4.30;;
24559;SDS011;12727;49.934;8.656;2022-10-17T18:31:23;16.40;;;4.50;;
24559;SDS011;12727;49.934;8.656;2022-10-17T18:33:55;10.57;;;3.95;;
24559;SDS011;12727;49.934;8.656;2022-10-17T18:36:23;8.90;;;3.33;;
24559;SDS011;12727;49.934;8.656;2022-10-17T18:38:50;9.55;;;4.03;;
24559;SDS011;12727;49.934;8.656;2022-10-17T18:41:18;9.27;;;4.10;;
24559;SDS011;12727;49.934;8.656;2022-10-17T18:43:45;11.02;;;4.28;;
24559;SDS011;12727;49.934;8.656;2022-10-17T18:46:13;10.00;;;3.97;;
24559;SDS011;12727;49.934;8.656;2022-10-17T18:48:41;11.90;;;4.28;;
24559;SDS011;12727;49.934;8.656;2022-10-17T18:51:08;12.43;;;4.03;;
24559;SDS011;12727;49.934;8.656;2022-10-17T18:53:37;9.63;;;4.00;;
24559;SDS011;12727;49.934;8.656;2022-10-17T18:56:05;11.68;;;4.05;;
24559;SDS011;12727;49.934;8.656;2022-10-17T18:58:30;8.23;;;3.47;;
24559;SDS011;12727;49.934;8.656;2022-10-17T19:01:00;5.45;;;3.55;;
24559;SDS011;12727;49.934;8.656;2022-10-17T19:03:27;5.90;;;3.72;;
24559;SDS011;12727;49.934;8.656;2022-10-17T19:05:53;10.18;;;3.75;;
24559;SDS011;12727;49.934;8.656;2022-10-17T19:08:18;17.38;;;4.45;;
24559;SDS011;12727;49.934;8.656;2022-10-17T19:10:44;10.35;;;4.32;;
24559;SDS011;12727;49.934;8.656;2022-10-17T19:13:10;9.05;;;4.07;;
24559;SDS011;12727;49.934;8.656;2022-10-17T19:15:36;12.15;;;3.60;;
24559;SDS011;12727;49.934;8.656;2022-10-17T19:18:02;10.32;;;4.03;;
24559;SDS011;12727;49.934;8.656;2022-10-17T19:20:28;12.15;;;4.40;;
24559;SDS011;12727;49.934;8.656;2022-10-17T19:22:53;7.15;;;3.78;;
24559;SDS011;12727;49.934;8.656;2022-10-17T19:25:19;13.07;;;4.43;;
24559;SDS011;12727;49.934;8.656;2022-10-17T19:27:44;9.52;;;5.78;;
24559;SDS011;12727;49.934;8.656;2022-10-17T19:30:10;14.57;;;5.07;;
24559;SDS011;12727;49.934;8.656;2022-10-17T19:32:36;12.95;;;4.80;;
24559;SDS011;12727;49.934;8.656;2022-10-17T19:35:03;12.95;;;4.38;;
24559;SDS011;12727;49.934;8.656;2022-10-17T19:37:29;10.60;;;4.55;;
24559;SDS011;12727;49.934;8.656;2022-10-17T19:39:55;13.23;;;5.07;;
24559;SDS011;12727;49.934;8.656;2022-10-17T19:42:21;10.77;;;4.57;;
24559;SDS011;12727;49.934;8.656;2022-10-17T19:44:47;9.30;;;3.97;;
24559;SDS011;12727;49.934;8.656;2022-10-17T19:47:12;13.35;;;4.40;;
24559;SDS011;12727;49.934;8.656;2022-10-17T19:49:38;15.68;;;4.65;;
24559;SDS011;12727;49.934;8.656;2022-10-17T19:52:03;14.30;;;4.18;;
24559;SDS011;12727;49.934;8.656;2022-10-17T19:54:29;12.70;;;4.20;;
24559;SDS011;12727;49.934;8.656;2022-10-17T19:56:55;12.65;;;4.28;;
24559;SDS011;12727;49.934;8.656;2022-10-17T19:59:20;7.95;;;4.22;;
24559;SDS011;12727;49.934;8.656;2022-10-17T20:01:46;10.80;;;4.22;;
24559;SDS011;12727;49.934;8.656;2022-10-17T20:04:11;9.02;;;4.45;;
24559;SDS011;12727;49.934;8.656;2022-10-17T20:06:37;8.43;;;4.50;;
24559;SDS011;12727;49.934;8.656;2022-10-17T20:09:04;10.63;;;4.75;;
24559;SDS011;12727;49.934;8.656;2022-10-17T20:11:31;13.57;;;5.43;;
24559;SDS011;12727;49.934;8.656;2022-10-17T20:13:57;11.00;;;5.95;;
24559;SDS011;12727;49.934;8.656;2022-10-17T20:16:25;11.82;;;5.68;;
24559;SDS011;12727;49.934;8.656;2022-10-17T20:18:53;15.27;;;5.25;;
24559;SDS011;12727;49.934;8.656;2022-10-17T20:21:21;17.98;;;6.13;;
24559;SDS011;12727;49.934;8.656;2022-10-17T20:23:49;12.00;;;5.38;;
24559;SDS011;12727;49.934;8.656;2022-10-17T20:26:19;12.90;;;4.78;;
24559;SDS011;12727;49.934;8.656;2022-10-17T20:28:47;11.60;;;4.65;;
24559;SDS011;12727;49.934;8.656;2022-10-17T20:31:13;8.55;;;4.25;;
24559;SDS011;12727;49.934;8.656;2022-10-17T20:33:39;15.10;;;5.18;;
24559;SDS011;12727;49.934;8.656;2022-10-17T20:36:06;8.70;;;6.10;;
24559;SDS011;12727;49.934;8.656;2022-10-17T20:38:32;9.40;;;4.90;;
24559;SDS011;12727;49.934;8.656;2022-10-17T20:40:59;9.38;;;4.32;;
24559;SDS011;12727;49.934;8.656;2022-10-17T20:43:26;8.60;;;4.30;;
24559;SDS011;12727;49.934;8.656;2022-10-17T20:45:51;11.90;;;5.03;;
24559;SDS011;12727;49.934;8.656;2022-10-17T20:48:17;14.18;;;4.72;;
24559;SDS011;12727;49.934;8.656;2022-10-17T20:50:43;13.50;;;4.63;;
24559;SDS011;12727;49.934;8.656;2022-10-17T20:53:09;15.13;;;4.88;;
24559;SDS011;12727;49.934;8.656;2022-10-17T20:55:35;9.18;;;4.85;;
24559;SDS011;12727;49.934;8.656;2022-10-17T20:58:01;13.88;;;5.20;;
24559;SDS011;12727;49.934;8.656;2022-10-17T21:00:27;12.25;;;5.03;;
24559;SDS011;12727;49.934;8.656;2022-10-17T21:02:54;18.27;;;4.57;;
24559;SDS011;12727;49.934;8.656;2022-10-17T21:05:19;9.13;;;4.90;;
24559;SDS011;12727;49.934;8.656;2022-10-17T21:07:46;8.95;;;4.65;;
24559;SDS011;12727;49.934;8.656;2022-10-17T21:10:12;11.15;;;4.30;;
24559;SDS011;12727;49.934;8.656;2022-10-17T21:12:38;14.70;;;4.80;;
24559;SDS011;12727;49.934;8.656;2022-10-17T21:15:04;14.45;;;4.85;;
24559;SDS011;12727;49.934;8.656;2022-10-17T21:17:29;15.85;;;4.57;;
24559;SDS011;12727;49.934;8.656;2022-10-17T21:19:55;10.60;;;4.70;;
24559;SDS011;12727;49.934;8.656;2022-10-17T21:22:21;14.52;;;4.70;;
24559;SDS011;12727;49.934;8.656;2022-10-17T21:24:46;8.13;;;5.15;;
24559;SDS011;12727;49.934;8.656;2022-10-17T21:27:13;13.15;;;5.20;;
24559;SDS011;12727;49.934;8.656;2022-10-17T21:29:40;10.35;;;4.60;;
24559;SDS011;12727;49.934;8.656;2022-10-17T21:32:06;16.98;;;5.22;;
24559;SDS011;12727;49.934;8.656;2022-10-17T21:34:32;9.30;;;4.45;;
24559;SDS011;12727;49.934;8.656;2022-10-17T21:36:58;9.65;;;4.38;;
24559;SDS011;12727;49.934;8.656;2022-10-17T21:39:24;11.93;;;4.22;;
24559;SDS011;12727;49.934;8.656;2022-10-17T21:41:50;7.97;;;4.50;;
24559;SDS011;12727;49.934;8.656;2022-10-17T21:44:17;9.15;;;4.75;;
24559;SDS011;12727;49.934;8.656;2022-10-17T21:46:47;9.40;;;4.82;;
24559;SDS011;12727;49.934;8.656;2022-10-17T21:49:14;6.97;;;4.72;;
24559;SDS011;12727;49.934;8.656;2022-10-17T21:51:41;7.88;;;4.40;;
24559;SDS011;12727;49.934;8.656;2022-10-17T21:54:08;12.52;;;4.88;;
24559;SDS011;12727;49.934;8.656;2022-10-17T21:56:34;12.43;;;5.22;;
24559;SDS011;12727;49.934;8.656;2022-10-17T21:59:01;9.68;;;4.25;;
24559;SDS011;12727;49.934;8.656;2022-10-17T22:01:28;9.60;;;4.15;;
24559;SDS011;12727;49.934;8.656;2022-10-17T22:03:57;13.20;;;4.40;;
24559;SDS011;12727;49.934;8.656;2022-10-17T22:06:25;10.20;;;4.47;;
24559;SDS011;12727;49.934;8.656;2022-10-17T22:08:53;10.45;;;4.72;;
24559;SDS011;12727;49.934;8.656;2022-10-17T22:11:23;8.43;;;4.88;;
24559;SDS011;12727;49.934;8.656;2022-10-17T22:13:56;8.40;;;5.25;;
24559;SDS011;12727;49.934;8.656;2022-10-17T22:16:24;10.27;;;5.18;;
24559;SDS011;12727;49.934;8.656;2022-10-17T22:18:50;12.13;;;5.60;;
24559;SDS011;12727;49.934;8.656;2022-10-17T22:21:17;14.95;;;5.40;;
24559;SDS011;12727;49.934;8.656;2022-10-17T22:23:45;12.07;;;5.22;;
24559;SDS011;12727;49.934;8.656;2022-10-17T22:26:13;10.07;;;4.95;;
24559;SDS011;12727;49.934;8.656;2022-10-17T22:28:39;7.25;;;4.72;;
24559;SDS011;12727;49.934;8.656;2022-10-17T22:31:06;10.65;;;5.13;;
24559;SDS011;12727;49.934;8.656;2022-10-17T22:33:33;10.43;;;4.70;;
24559;SDS011;12727;49.934;8.656;2022-10-17T22:35:59;11.02;;;5.45;;
24559;SDS011;12727;49.934;8.656;2022-10-17T22:38:26;16.58;;;5.32;;
24559;SDS011;12727;49.934;8.656;2022-10-17T22:40:52;9.35;;;5.22;;
24559;SDS011;12727;49.934;8.656;2022-10-17T22:43:17;13.57;;;5.18;;
24559;SDS011;12727;49.934;8.656;2022-10-17T22:45:49;13.10;;;4.72;;
24559;SDS011;12727;49.934;8.656;2022-10-17T22:48:16;15.18;;;4.70;;
24559;SDS011;12727;49.934;8.656;2022-10-17T22:50:41;11.90;;;4.85;;
24559;SDS011;12727;49.934;8.656;2022-10-17T22:53:07;18.55;;;5.82;;
24559;SDS011;12727;49.934;8.656;2022-10-17T22:55:32;12.77;;;5.45;;
24559;SDS011;12727;49.934;8.656;2022-10-17T22:57:58;12.48;;;5.03;;
24559;SDS011;12727;49.934;8.656;2022-10-17T23:00:23;11.13;;;5.47;;
24559;SDS011;12727;49.934;8.656;2022-10-17T23:02:53;12.73;;;5.28;;
24559;SDS011;12727;49.934;8.656;2022-10-17T23:05:19;11.45;;;4.97;;
24559;SDS011;12727;49.934;8.656;2022-10-17T23:07:45;13.43;;;5.53;;
24559;SDS011;12727;49.934;8.656;2022-10-17T23:10:10;10.18;;;5.35;;
24559;SDS011;12727;49.934;8.656;2022-10-17T23:12:36;11.27;;;5.88;;
24559;SDS011;12727;49.934;8.656;2022-10-17T23:15:01;9.57;;;5.00;;
24559;SDS011;12727;49.934;8.656;2022-10-17T23:17:27;10.35;;;5.35;;
24559;SDS011;12727;49.934;8.656;2022-10-17T23:19:53;11.75;;;5.35;;
24559;SDS011;12727;49.934;8.656;2022-10-17T23:22:18;11.65;;;5.40;;
24559;SDS011;12727;49.934;8.656;2022-10-17T23:24:44;7.28;;;5.57;;
24559;SDS011;12727;49.934;8.656;2022-10-17T23:27:09;9.10;;;4.95;;
24559;SDS011;12727;49.934;8.656;2022-10-17T23:29:35;15.13;;;4.90;;
24559;SDS011;12727;49.934;8.656;2022-10-17T23:32:00;17.42;;;5.13;;
24559;SDS011;12727;49.934;8.656;2022-10-17T23:34:26;8.52;;;4.53;;
24559;SDS011;12727;49.934;8.656;2022-10-17T23:36:53;10.23;;;4.85;;
24559;SDS011;12727;49.934;8.656;2022-10-17T23:39:18;9.00;;;5.13;;
24559;SDS011;12727;49.934;8.656;2022-10-17T23:41:44;10.23;;;4.95;;
24559;SDS011;12727;49.934;8.656;2022-10-17T23:44:10;12.23;;;5.18;;
24559;SDS011;12727;49.934;8.656;2022-10-17T23:46:36;11.52;;;5.50;;
24559;SDS011;12727;49.934;8.656;2022-10-17T23:49:02;11.40;;;5.75;;
24559;SDS011;12727;49.934;8.656;2022-10-17T23:51:28;15.20;;;5.50;;
24559;SDS011;12727;49.934;8.656;2022-10-17T23:53:54;11.38;;;5.60;;
24559;SDS011;12727;49.934;8.656;2022-10-17T23:56:19;15.32;;;5.70;;
24559;SDS011;12727;49.934;8.656;2022-10-17T23:58:45;8.38;;;4.80;;
